Strona główna
METAR-TAF:

METAR-TAF

Lotnisko :

Somerset Airport

Somerville, New Jersey, Stany Zjednoczone

Szerokość geograficzna: 40-37-26N, Długość geograficzna: 074-40-10W, wysokość: 32 m

Aktualna obserwacja pogody

Raport powstał 1 godzina i 2 minut temu, godzina 01:53 UTC
Wiatr 5 kt od północ
Temperatura 11°C
Wilgotność 71%
Ciśnienie 1011 hPa
Widzialność: 16.1 km
Przerywane chmury na wysokości 3400 ft
Zachmurzenie całkowite na wysokości 7000 ft

METAR: KSMQ 040153Z AUTO 35005KT 10SM BKN034 OVC070 11/06 A2985 RMK AO2 RAB0055E30 SLP110 P0000 T01060061

czas: 22:55 (02:55 UTC)


TAF: brakujący

Obserwacja i prognoza pogody dla ponad 4000 lotnisk (raport METAR i TAF).

Dostępne stacje oznaczono żółtymi i czerwonymi punktami na mapie.

Najedź kursorem aby zobaczyć nazwę stacji.

Kliknij aby zobaczyć obserwacje i prognozy pogody.

Aby zmienić mapę: kliknij na zielony przycisk z czarnym krzyżykiem, aby powiększyć; na zielony przycisk z myślnikiem, aby pomniejszyć; na zielone strzałki, aby przejść do map sąsiednich.


METAR-TAF: